Time;durP1;ratioP1;P1;durP2;ratioP2;P2;SDS_P1;SDS_P2;PMS_P1;PMS_P2;Temp;Humidity;BMP_temperature;BMP_pressure;BME280_temperature;BME280_humidity;BME280_pressure;Samples;Min_cycle;Max_cycle;Signal;HPM_P1;HPM_P2
2022/11/29 00:01:37;;;;;;;10.55;7.20;;;12.00;61.50;;;;;;5012288;28;20532;-46
2022/11/29 00:04:04;;;;;;;13.95;7.97;;;12.00;61.50;;;;;;5018532;28;20057;-49
2022/11/29 00:06:33;;;;;;;13.65;7.50;;;12.00;61.50;;;;;;5016051;28;20056;-46
2022/11/29 00:09:05;;;;;;;11.40;7.47;;;12.00;61.50;;;;;;5013783;28;20058;-45
2022/11/29 00:14:21;;;;;;;15.45;7.70;;;12.00;61.50;;;;;;5026819;28;20076;-45
2022/11/29 00:16:51;;;;;;;18.85;8.32;;;12.00;61.50;;;;;;5017149;28;20526;-49
2022/11/29 00:19:19;;;;;;;17.88;8.13;;;12.00;61.50;;;;;;5019781;28;20053;-48
2022/11/29 00:21:46;;;;;;;15.75;8.30;;;12.00;61.50;;;;;;5012284;28;20059;-47
2022/11/29 00:24:15;;;;;;;16.23;8.05;;;12.00;61.50;;;;;;5018701;28;20072;-44
2022/11/29 00:26:42;;;;;;;13.70;6.90;;;12.00;61.50;;;;;;5017975;28;20489;-50
2022/11/29 00:29:10;;;;;;;13.30;6.80;;;12.00;61.50;;;;;;5008706;28;20054;-46
2022/11/29 00:31:38;;;;;;;17.13;8.30;;;12.00;61.60;;;;;;5019303;28;20057;-47
2022/11/29 00:34:06;;;;;;;30.48;11.93;;;12.00;61.60;;;;;;5012920;28;20065;-48
2022/11/29 00:36:33;;;;;;;29.17;10.98;;;12.00;61.60;;;;;;5023377;28;20457;-47
2022/11/29 00:39:01;;;;;;;33.70;10.23;;;11.90;61.50;;;;;;5009202;28;20084;-46
2022/11/29 00:41:30;;;;;;;21.58;9.15;;;11.90;61.50;;;;;;5019087;28;20058;-49
2022/11/29 00:43:57;;;;;;;30.63;9.35;;;11.90;61.50;;;;;;5009815;28;20068;-47
2022/11/29 00:46:25;;;;;;;22.80;8.63;;;11.90;61.50;;;;;;5013470;28;20058;-49
2022/11/29 00:48:52;;;;;;;25.42;12.40;;;11.90;61.50;;;;;;5016781;28;20379;-47
2022/11/29 00:51:19;;;;;;;23.95;10.23;;;11.90;61.50;;;;;;5023214;28;20061;-46
2022/11/29 00:53:47;;;;;;;19.80;8.00;;;11.90;61.50;;;;;;5040712;28;20056;-50
2022/11/29 00:56:14;;;;;;;26.00;8.40;;;11.90;61.60;;;;;;5034119;28;20057;-47
2022/11/29 00:58:43;;;;;;;23.65;8.88;;;11.90;61.60;;;;;;5033712;28;20489;-45
2022/11/29 01:01:10;;;;;;;28.63;10.30;;;11.90;61.60;;;;;;5025047;28;20049;-50
2022/11/29 01:03:38;;;;;;;25.98;8.52;;;11.90;61.60;;;;;;5034641;28;20064;-48
2022/11/29 01:06:07;;;;;;;15.07;6.93;;;11.90;61.60;;;;;;5036069;28;20052;-47
2022/11/29 01:08:35;;;;;;;14.82;5.50;;;11.90;61.60;;;;;;5035214;28;20091;-50
2022/11/29 01:11:06;;;;;;;13.38;5.07;;;11.90;61.60;;;;;;5033092;28;20053;-47
2022/11/29 01:13:34;;;;;;;11.95;5.45;;;11.90;61.60;;;;;;5034309;28;20126;-48
2022/11/29 01:16:04;;;;;;;12.57;5.03;;;11.90;61.60;;;;;;5039626;28;20052;-46
2022/11/29 01:18:31;;;;;;;17.00;5.40;;;11.90;61.60;;;;;;5020316;28;20401;-46
2022/11/29 01:21:00;;;;;;;9.95;4.35;;;11.90;61.60;;;;;;5027547;28;20049;-48
2022/11/29 01:23:29;;;;;;;12.30;4.85;;;11.90;61.70;;;;;;5033790;28;20056;-48
2022/11/29 01:25:57;;;;;;;12.43;5.20;;;11.90;61.70;;;;;;5031608;28;20049;-46
2022/11/29 01:28:25;;;;;;;12.70;5.50;;;11.90;61.70;;;;;;5020968;28;20129;-49
2022/11/29 01:30:52;;;;;;;13.88;5.45;;;11.90;61.60;;;;;;5039506;28;20056;-46
2022/11/29 01:33:21;;;;;;;12.43;5.50;;;11.90;61.70;;;;;;5034531;28;20625;-49
2022/11/29 01:35:49;;;;;;;15.68;6.72;;;11.90;61.70;;;;;;5029984;28;20059;-48
2022/11/29 01:38:16;;;;;;;14.70;5.28;;;11.90;61.70;;;;;;5035690;28;20049;-46
2022/11/29 01:40:44;;;;;;;14.82;5.45;;;11.90;61.60;;;;;;5032083;28;20497;-47
2022/11/29 01:43:16;;;;;;;16.33;4.97;;;11.90;61.70;;;;;;5025792;28;20045;-49
2022/11/29 01:45:44;;;;;;;16.63;5.32;;;11.90;61.70;;;;;;5034446;28;21105;-48
2022/11/29 01:48:14;;;;;;;10.63;4.85;;;11.90;61.60;;;;;;5024825;28;20064;-45
2022/11/29 01:50:43;;;;;;;16.42;5.40;;;11.90;61.70;;;;;;5022247;28;20060;-48
2022/11/29 01:53:13;;;;;;;13.57;5.60;;;11.90;61.70;;;;;;5031492;28;20637;-50
2022/11/29 01:55:46;;;;;;;14.50;5.40;;;11.90;61.70;;;;;;5028549;28;20057;-48
2022/11/29 01:58:14;;;;;;;18.00;5.00;;;11.90;61.70;;;;;;5023632;28;20606;-49
2022/11/29 02:00:42;;;;;;;11.70;5.07;;;11.90;61.70;;;;;;5024142;28;20049;-45
2022/11/29 02:03:11;;;;;;;20.25;6.22;;;11.90;61.80;;;;;;5023782;28;20052;-46
2022/11/29 02:05:41;;;;;;;20.95;5.90;;;11.90;61.80;;;;;;5030512;28;20084;-47
2022/11/29 02:08:13;;;;;;;13.98;5.53;;;11.90;61.80;;;;;;5026107;28;20512;-49
2022/11/29 02:10:56;;;;;;;17.95;5.97;;;11.80;61.80;;;;;;5031968;28;20076;-45
2022/11/29 02:13:32;;;;;;;16.42;5.05;;;11.90;61.90;;;;;;5024041;28;20056;-54
2022/11/29 02:16:04;;;;;;;16.17;5.60;;;11.90;61.90;;;;;;5022061;28;20076;-49
2022/11/29 02:18:46;;;;;;;11.57;6.00;;;11.90;61.90;;;;;;5030065;28;20053;-50
2022/11/29 02:21:38;;;;;;;14.68;5.63;;;11.90;62.00;;;;;;5030150;28;20052;-49
2022/11/29 02:24:37;;;;;;;20.65;5.80;;;11.90;62.00;;;;;;5033634;28;20060;-48
2022/11/29 02:27:26;;;;;;;13.68;5.55;;;11.90;61.90;;;;;;5034814;28;20060;-49
2022/11/29 02:30:23;;;;;;;15.60;5.93;;;11.90;61.90;;;;;;5041653;28;20057;-48
2022/11/29 02:33:29;;;;;;;23.00;6.65;;;11.90;62.00;;;;;;5020410;28;20057;-48
2022/11/29 02:36:11;;;;;;;15.95;6.00;;;11.90;61.90;;;;;;5044635;28;20124;-45
2022/11/29 02:39:00;;;;;;;13.75;5.55;;;11.90;61.80;;;;;;5027814;28;20056;-51
2022/11/29 02:41:43;;;;;;;17.60;6.40;;;11.90;61.90;;;;;;5030677;28;20053;-50
2022/11/29 02:44:28;;;;;;;15.77;6.85;;;11.90;61.90;;;;;;5036569;28;20053;-47
2022/11/29 02:47:07;;;;;;;17.60;6.43;;;11.90;61.90;;;;;;5028239;28;20060;-48
2022/11/29 02:49:54;;;;;;;24.98;6.80;;;11.90;62.00;;;;;;5042108;28;20072;-50
2022/11/29 02:52:30;;;;;;;13.73;6.28;;;11.90;62.00;;;;;;5031185;28;20061;-49
2022/11/29 02:55:04;;;;;;;20.55;6.60;;;11.90;62.00;;;;;;5039193;28;20053;-45
2022/11/29 02:57:37;;;;;;;;;;;11.90;62.10;;;;;;5039695;28;20053;-49
2022/11/29 03:00:07;;;;;;;24.25;6.97;;;11.90;62.10;;;;;;5042408;28;19921;-49
2022/11/29 03:02:43;;;;;;;25.67;7.70;;;11.90;61.90;;;;;;5037055;28;20481;-48
2022/11/29 03:05:19;;;;;;;17.65;6.47;;;11.90;62.00;;;;;;5029780;28;20045;-48
2022/11/29 03:07:57;;;;;;;18.23;6.47;;;11.90;62.10;;;;;;5028547;28;20054;-48
2022/11/29 03:10:33;;;;;;;22.10;7.57;;;11.90;62.20;;;;;;5020435;28;20421;-50
2022/11/29 03:13:04;;;;;;;15.48;7.10;;;11.90;62.30;;;;;;5014922;28;20493;-46
2022/11/29 03:15:34;;;;;;;21.70;7.57;;;11.90;62.30;;;;;;5014814;28;20049;-45
2022/11/29 03:18:13;;;;;;;20.60;7.10;;;11.90;62.30;;;;;;5038430;28;20048;-48
2022/11/29 03:20:52;;;;;;;24.13;7.82;;;11.90;62.30;;;;;;5033190;28;20409;-45
2022/11/29 03:23:28;;;;;;;16.88;7.05;;;11.90;62.30;;;;;;5030107;28;20397;-48
2022/11/29 03:26:01;;;;;;;26.40;8.15;;;11.90;62.30;;;;;;5023271;28;21206;-51
2022/11/29 03:28:32;;;;;;;18.17;7.20;;;11.90;62.30;;;;;;5033105;28;20420;-50
2022/11/29 03:31:08;;;;;;;20.55;7.97;;;11.90;62.20;;;;;;5032965;28;20049;-44
2022/11/29 03:33:43;;;;;;;22.60;7.78;;;11.90;62.30;;;;;;5035457;28;20072;-49
2022/11/29 03:36:14;;;;;;;;;;;11.90;62.30;;;;;;5044383;28;20061;-51
2022/11/29 03:38:45;;;;;;;22.30;7.85;;;11.90;62.30;;;;;;5040453;28;20376;-48
2022/11/29 03:41:24;;;;;;;15.30;7.38;;;11.90;62.00;;;;;;5023672;28;20057;-48
2022/11/29 03:43:56;;;;;;;15.20;6.18;;;11.90;62.10;;;;;;5031425;28;20073;-51
2022/11/29 03:46:33;;;;;;;18.45;7.22;;;11.90;62.20;;;;;;5027226;28;20054;-54
2022/11/29 03:49:06;;;;;;;21.08;8.30;;;11.90;62.30;;;;;;5034327;28;20049;-49
2022/11/29 03:51:45;;;;;;;24.13;7.88;;;11.90;62.30;;;;;;5041217;28;20060;-47
2022/11/29 03:54:17;;;;;;;18.70;7.75;;;11.90;62.40;;;;;;5042353;28;20049;-47
2022/11/29 03:56:45;;;;;;;22.00;7.93;;;11.90;62.40;;;;;;5037418;28;20061;-48
2022/11/29 03:59:38;;;;;;;24.52;7.90;;;11.90;62.40;;;;;;5032281;28;20041;-48
2022/11/29 04:02:30;;;;;;;21.13;7.78;;;11.90;62.40;;;;;;5025907;28;20068;-49
2022/11/29 04:05:36;;;;;;;26.60;7.90;;;11.90;62.50;;;;;;5042357;28;20061;-47
2022/11/29 04:08:18;;;;;;;21.98;8.95;;;11.90;62.50;;;;;;5026074;28;20053;-47
2022/11/29 04:11:07;;;;;;;20.13;8.00;;;11.90;62.40;;;;;;5024624;28;20064;-43
2022/11/29 04:14:02;;;;;;;20.88;9.02;;;11.90;62.50;;;;;;5032007;28;20057;-50
2022/11/29 04:17:12;;;;;;;22.50;8.63;;;11.90;62.50;;;;;;4995455;28;20060;-47
2022/11/29 04:20:16;;;;;;;19.13;9.20;;;11.90;62.50;;;;;;5042716;28;20057;-46
2022/11/29 04:23:04;;;;;;;21.80;8.73;;;11.90;62.60;;;;;;5020269;28;20060;-49
2022/11/29 04:25:58;;;;;;;21.00;8.82;;;11.90;62.60;;;;;;5035430;28;20052;-46
2022/11/29 04:28:36;;;;;;;;;;;11.90;62.70;;;;;;5001388;28;20071;-47
2022/11/29 04:31:12;;;;;;;20.42;8.88;;;11.90;62.70;;;;;;5038283;28;19924;-43
2022/11/29 04:34:18;;;;;;;30.75;10.05;;;11.90;62.40;;;;;;5011488;28;20045;-46
2022/11/29 04:37:18;;;;;;;21.92;9.38;;;11.90;62.70;;;;;;5000219;28;20501;-44
2022/11/29 04:40:06;;;;;;;21.30;8.82;;;11.90;62.80;;;;;;5024901;28;20052;-47
2022/11/29 04:43:09;;;;;;;34.25;10.73;;;11.90;62.90;;;;;;5022633;28;20053;-50
2022/11/29 04:45:57;;;;;;;28.33;10.00;;;11.90;63.00;;;;;;5004644;28;20057;-48
2022/11/29 04:48:42;;;;;;;26.40;10.52;;;11.90;63.00;;;;;;5042328;28;20052;-51
2022/11/29 04:51:21;;;;;;;24.52;10.98;;;11.90;63.10;;;;;;5040201;28;20053;-50
2022/11/29 04:53:53;;;;;;;26.92;10.35;;;11.80;63.00;;;;;;5039778;28;20068;-46
2022/11/29 04:56:31;;;;;;;31.48;12.35;;;11.90;63.00;;;;;;5028544;28;20048;-49
2022/11/29 04:59:05;;;;;;;30.65;12.55;;;11.90;63.10;;;;;;5019602;28;20461;-48
2022/11/29 05:01:46;;;;;;;25.45;12.18;;;11.90;63.20;;;;;;5023738;28;20520;-44
2022/11/29 05:04:19;;;;;;;29.88;13.10;;;11.80;63.20;;;;;;5039536;28;20419;-48
2022/11/29 05:06:59;;;;;;;33.92;13.57;;;11.90;63.30;;;;;;5027668;28;20053;-41
2022/11/29 05:09:36;;;;;;;52.47;15.50;;;11.90;63.40;;;;;;5031251;28;20056;-47
2022/11/29 05:12:10;;;;;;;43.53;16.35;;;11.80;63.30;;;;;;5026914;28;20075;-48
2022/11/29 05:15:01;;;;;;;32.80;15.85;;;11.90;63.40;;;;;;5033731;28;20063;-49
2022/11/29 05:17:38;;;;;;;46.92;17.63;;;11.80;63.40;;;;;;5012557;28;20592;-48
2022/11/29 05:20:18;;;;;;;40.33;17.10;;;11.80;63.30;;;;;;5034003;28;20412;-48
2022/11/29 05:22:56;;;;;;;44.30;18.33;;;11.80;63.40;;;;;;5035192;28;20049;-46
2022/11/29 05:25:39;;;;;;;43.10;17.40;;;11.80;63.50;;;;;;5022008;28;20059;-49
2022/11/29 05:28:12;;;;;;;44.50;17.05;;;11.80;63.60;;;;;;5033286;28;20055;-47
2022/11/29 05:31:09;;;;;;;42.83;16.65;;;11.80;63.60;;;;;;5027505;28;20049;-45
2022/11/29 05:33:53;;;;;;;69.78;20.13;;;11.80;63.70;;;;;;5027685;28;20056;-49
2022/11/29 05:36:27;;;;;;;49.72;18.42;;;11.90;63.70;;;;;;5016289;28;20060;-46
2022/11/29 05:39:11;;;;;;;37.75;18.15;;;11.80;63.70;;;;;;5022228;28;20052;-48
2022/11/29 05:42:03;;;;;;;50.20;19.27;;;11.80;63.70;;;;;;5025411;28;20053;-48
2022/11/29 05:44:36;;;;;;;44.60;18.60;;;11.90;63.80;;;;;;5027613;28;20053;-48
2022/11/29 05:47:08;;;;;;;39.25;18.33;;;11.90;63.80;;;;;;5026828;28;20065;-46
2022/11/29 05:49:42;;;;;;;50.17;19.77;;;11.90;63.80;;;;;;5038325;28;20064;-48
2022/11/29 05:52:23;;;;;;;65.88;21.35;;;11.90;63.90;;;;;;5022856;28;20060;-50
2022/11/29 05:55:10;;;;;;;34.42;17.10;;;11.80;64.00;;;;;;5026783;28;20059;-43
2022/11/29 05:57:46;;;;;;;32.67;16.25;;;11.80;64.00;;;;;;5030699;28;20456;-47
2022/11/29 06:00:15;;;;;;;40.78;16.10;;;11.90;64.00;;;;;;5034544;28;20432;-47
2022/11/29 06:02:53;;;;;;;29.02;14.55;;;11.90;64.00;;;;;;5035501;28;20063;-45
2022/11/29 06:05:31;;;;;;;25.92;12.82;;;11.90;64.10;;;;;;5024583;28;20075;-48
2022/11/29 06:08:05;;;;;;;25.35;11.57;;;11.90;64.10;;;;;;5035256;28;20064;-47
2022/11/29 06:10:38;;;;;;;21.48;12.88;;;11.90;64.10;;;;;;5029904;28;20053;-48
2022/11/29 06:13:18;;;;;;;21.67;12.25;;;11.90;64.10;;;;;;5026001;28;20060;-43
2022/11/29 06:16:06;;;;;;;28.30;13.85;;;11.90;64.10;;;;;;5017611;28;20065;-44
2022/11/29 06:19:00;;;;;;;30.98;14.70;;;11.90;64.20;;;;;;5029041;28;20053;-46
2022/11/29 06:21:38;;;;;;;32.28;15.50;;;11.90;64.20;;;;;;5036797;28;20052;-47
2022/11/29 06:24:40;;;;;;;28.65;15.23;;;11.90;64.10;;;;;;5029567;28;20049;-50
2022/11/29 06:27:28;;;;;;;26.20;14.25;;;11.90;64.30;;;;;;5040626;28;20060;-46
2022/11/29 06:30:02;;;;;;;36.20;15.43;;;11.90;64.30;;;;;;5032363;28;20053;-47
2022/11/29 06:32:39;;;;;;;36.25;14.80;;;11.90;64.30;;;;;;5019537;28;20527;-44
2022/11/29 06:35:19;;;;;;;38.60;17.08;;;11.90;65.10;;;;;;5034435;28;20058;-47
2022/11/29 06:37:51;;;;;;;34.30;19.33;;;11.90;64.40;;;;;;5018456;28;20053;-47
2022/11/29 06:40:19;;;;;;;37.22;17.50;;;11.90;64.40;;;;;;5025158;28;20053;-47
2022/11/29 06:42:47;;;;;;;34.30;18.33;;;11.90;64.40;;;;;;5045148;28;20053;-50
2022/11/29 06:45:16;;;;;;;38.25;20.05;;;11.90;64.40;;;;;;5037432;28;20064;-46
2022/11/29 06:47:46;;;;;;;43.45;18.95;;;11.90;65.20;;;;;;5032799;28;20052;-45
2022/11/29 06:50:31;;;;;;;80.72;24.15;;;11.90;64.50;;;;;;5035771;28;20516;-50
2022/11/29 06:53:04;;;;;;;41.78;20.65;;;11.90;64.70;;;;;;5029861;28;20048;-48
2022/11/29 06:55:42;;;;;;;42.22;21.00;;;11.90;64.60;;;;;;5044016;28;20064;-44
2022/11/29 06:58:21;;;;;;;60.45;21.45;;;11.90;64.70;;;;;;5042984;28;20381;-47
2022/11/29 07:00:55;;;;;;;40.40;20.40;;;11.80;64.70;;;;;;5023405;28;20057;-47
2022/11/29 07:03:41;;;;;;;68.65;21.80;;;11.90;64.70;;;;;;5020521;28;20413;-46
2022/11/29 07:06:16;;;;;;;54.30;20.73;;;11.90;64.80;;;;;;5037739;28;20053;-46
2022/11/29 07:08:44;;;;;;;34.70;19.05;;;11.80;64.70;;;;;;5042584;28;20492;-49
2022/11/29 07:11:13;;;;;;;90.47;23.15;;;11.80;64.80;;;;;;5032547;28;20053;-49
2022/11/29 07:13:40;;;;;;;87.75;22.35;;;11.80;64.80;;;;;;5034059;28;20493;-49
2022/11/29 07:16:16;;;;;;;97.65;23.83;;;11.80;64.90;;;;;;5045549;28;20053;-51
2022/11/29 07:18:49;;;;;;;39.05;20.88;;;11.80;65.10;;;;;;5037638;28;20052;-47
2022/11/29 07:21:28;;;;;;;121.90;21.25;;;11.80;65.20;;;;;;5040025;28;21482;-49
2022/11/29 07:24:07;;;;;;;192.30;22.55;;;11.70;65.30;;;;;;5042000;28;20049;-50
2022/11/29 07:26:43;;;;;;;155.77;22.85;;;11.70;65.50;;;;;;5045274;28;20053;-46
2022/11/29 07:29:24;;;;;;;59.20;21.38;;;11.70;65.50;;;;;;5041408;28;21121;-49
2022/11/29 07:32:00;;;;;;;55.35;20.85;;;11.70;65.70;;;;;;5035947;28;20053;-48
2022/11/29 07:34:36;;;;;;;65.65;20.63;;;11.70;65.80;;;;;;5039946;28;20057;-44
2022/11/29 07:37:10;;;;;;;38.58;19.95;;;11.70;66.00;;;;;;5043272;28;20080;-49
2022/11/29 07:39:41;;;;;;;;;;;11.70;66.10;;;;;;5042106;28;20056;-45
2022/11/29 07:42:16;;;;;;;34.00;19.15;;;11.70;66.20;;;;;;5038938;28;19932;-49
2022/11/29 07:44:52;;;;;;;111.93;21.55;;;11.70;65.80;;;;;;5041607;28;20431;-47
2022/11/29 07:47:19;;;;;;;99.47;20.27;;;11.70;66.00;;;;;;5030271;28;20516;-48
2022/11/29 07:49:46;;;;;;;144.93;22.35;;;11.70;66.00;;;;;;5025867;28;20057;-47
2022/11/29 07:52:16;;;;;;;236.07;25.20;;;11.70;66.10;;;;;;5035010;28;20906;-45
2022/11/29 07:54:43;;;;;;;183.90;24.17;;;11.70;66.20;;;;;;5036077;28;20056;-48
2022/11/29 07:57:10;;;;;;;91.43;21.02;;;11.70;66.20;;;;;;5033687;28;20053;-49
2022/11/29 07:59:37;;;;;;;125.35;20.13;;;11.70;66.30;;;;;;5030648;28;20053;-49
2022/11/29 08:02:05;;;;;;;38.33;20.80;;;11.70;66.30;;;;;;5031376;28;20056;-49
2022/11/29 08:04:32;;;;;;;180.07;22.63;;;11.70;66.40;;;;;;5041918;28;20049;-47
2022/11/29 08:06:59;;;;;;;171.30;23.27;;;11.70;66.40;;;;;;5041947;28;20068;-51
2022/11/29 08:09:28;;;;;;;220.40;24.88;;;11.70;66.40;;;;;;5043028;28;20485;-50
2022/11/29 08:11:55;;;;;;;132.55;22.35;;;11.70;66.50;;;;;;5037059;28;20057;-48
2022/11/29 08:14:23;;;;;;;165.40;21.85;;;11.70;66.50;;;;;;5038755;28;20489;-46
2022/11/29 08:16:50;;;;;;;291.95;25.30;;;11.70;66.50;;;;;;5034909;28;20065;-50
2022/11/29 08:19:17;;;;;;;302.92;25.58;;;11.80;66.60;;;;;;5035320;28;20398;-50
2022/11/29 08:21:45;;;;;;;122.68;21.23;;;11.80;66.70;;;;;;5028779;28;20397;-44
2022/11/29 08:24:13;;;;;;;392.13;26.05;;;11.80;66.60;;;;;;5021603;28;20402;-50
2022/11/29 08:26:41;;;;;;;152.57;20.65;;;11.80;66.60;;;;;;5040028;28;20072;-45
2022/11/29 08:29:08;;;;;;;40.00;19.58;;;11.80;66.60;;;;;;5028041;28;20525;-46
2022/11/29 08:31:36;;;;;;;164.05;21.98;;;11.80;66.60;;;;;;5032816;28;20056;-49
2022/11/29 08:34:05;;;;;;;315.70;24.58;;;11.80;66.70;;;;;;5026139;28;20056;-50
2022/11/29 08:36:32;;;;;;;215.00;24.70;;;11.80;66.80;;;;;;5043108;28;20132;-46
2022/11/29 08:39:01;;;;;;;501.77;27.73;;;11.80;66.80;;;;;;5035277;28;20045;-45
2022/11/29 08:41:30;;;;;;;424.25;28.35;;;11.80;66.90;;;;;;5029413;28;20056;-48
2022/11/29 08:43:58;;;;;;;306.92;24.83;;;11.70;67.00;;;;;;5039001;28;20048;-51
2022/11/29 08:47:34;;;;;;;141.77;24.00;;;11.80;67.10;;;;;;5035851;28;20404;-47
2022/11/29 08:49:13;;;;;;;326.33;26.98;;;11.70;67.10;;;;;;5027564;28;20053;-44
2022/11/29 08:51:40;;;;;;;319.38;26.92;;;11.70;67.20;;;;;;5031145;28;20107;-48
2022/11/29 08:54:06;;;;;;;67.57;24.73;;;11.70;67.30;;;;;;5025379;28;20051;-48
2022/11/29 08:56:36;;;;;;;194.48;26.90;;;11.70;67.50;;;;;;5031781;28;20049;-49
2022/11/29 08:59:04;;;;;;;174.52;27.40;;;11.70;67.50;;;;;;5041115;28;20064;-47
2022/11/29 09:01:32;;;;;;;110.05;26.60;;;11.70;67.60;;;;;;5038414;28;20049;-49
2022/11/29 09:03:59;;;;;;;304.23;31.08;;;11.70;67.70;;;;;;5039180;28;20401;-46
2022/11/29 09:06:27;;;;;;;450.73;38.97;;;11.70;67.70;;;;;;5039283;28;20052;-47
2022/11/29 09:08:56;;;;;;;165.20;38.22;;;11.70;67.80;;;;;;5037435;28;20397;-47
2022/11/29 09:11:25;;;;;;;198.80;38.38;;;11.60;67.90;;;;;;5028650;28;20489;-48
2022/11/29 09:13:55;;;;;;;134.98;36.08;;;11.60;68.00;;;;;;5041169;28;20060;-51
2022/11/29 09:16:25;;;;;;;117.57;38.05;;;11.60;68.10;;;;;;5037051;28;20052;-46
2022/11/29 09:18:54;;;;;;;117.00;40.50;;;11.60;68.20;;;;;;5021630;28;20053;-45
2022/11/29 09:21:23;;;;;;;123.78;39.65;;;11.60;68.20;;;;;;5035644;28;20045;-50
2022/11/29 09:23:56;;;;;;;125.03;40.80;;;11.50;68.20;;;;;;5032230;28;20057;-44
2022/11/29 09:26:25;;;;;;;134.20;41.10;;;11.50;68.20;;;;;;5038094;28;20507;-49
2022/11/29 09:28:52;;;;;;;116.22;39.50;;;11.50;68.40;;;;;;5039657;28;20049;-47
2022/11/29 09:31:20;;;;;;;122.57;42.33;;;11.50;68.50;;;;;;5038534;28;20053;-47
2022/11/29 09:33:48;;;;;;;123.35;41.65;;;11.50;68.70;;;;;;5043316;28;20053;-46
2022/11/29 09:36:16;;;;;;;152.68;45.40;;;11.50;68.70;;;;;;5038402;28;20505;-47
2022/11/29 09:38:43;;;;;;;134.32;44.05;;;11.50;68.70;;;;;;5040374;28;20371;-42
2022/11/29 09:41:27;;;;;;;139.15;45.45;;;11.60;68.60;;;;;;5038930;28;20064;-48
2022/11/29 09:44:05;;;;;;;140.95;42.72;;;11.60;68.50;;;;;;5020263;28;20058;-44
2022/11/29 09:46:44;;;;;;;141.50;45.03;;;11.60;68.40;;;;;;5043912;28;20057;-45
2022/11/29 09:49:36;;;;;;;118.40;41.92;;;11.60;68.40;;;;;;5046398;28;20053;-45
2022/11/29 09:52:12;;;;;;;131.50;42.67;;;11.60;68.50;;;;;;5040975;28;20401;-47
2022/11/29 09:54:48;;;;;;;142.65;45.08;;;11.60;68.40;;;;;;5041910;28;20497;-45
2022/11/29 09:57:18;;;;;;;141.75;46.05;;;11.70;68.50;;;;;;5044524;28;20056;-48
2022/11/29 09:59:47;;;;;;;121.90;41.60;;;11.60;68.30;;;;;;5044572;28;20413;-48
2022/11/29 10:02:17;;;;;;;133.18;42.22;;;11.70;68.30;;;;;;5039758;28;20056;-44
2022/11/29 10:04:50;;;;;;;124.22;41.90;;;11.70;68.20;;;;;;5034516;28;20413;-43
2022/11/29 10:07:21;;;;;;;113.50;39.92;;;11.70;68.20;;;;;;5036121;28;20056;-46
2022/11/29 10:09:55;;;;;;;123.40;42.10;;;11.60;68.10;;;;;;5041203;28;20119;-47
2022/11/29 10:12:31;;;;;;;122.25;39.40;;;11.70;68.20;;;;;;5029678;28;20045;-45
2022/11/29 10:15:02;;;;;;;132.07;42.35;;;11.60;68.10;;;;;;5033755;28;20527;-48
2022/11/29 10:17:36;;;;;;;116.25;40.88;;;11.70;68.10;;;;;;5031930;28;20049;-47
2022/11/29 10:20:12;;;;;;;118.75;41.95;;;11.70;68.00;;;;;;5032559;28;20056;-47
2022/11/29 10:22:48;;;;;;;127.88;41.25;;;11.70;68.00;;;;;;5023204;28;20057;-45
2022/11/29 10:25:24;;;;;;;109.55;39.60;;;11.70;67.80;;;;;;5015569;28;20057;-47
2022/11/29 10:27:53;;;;;;;119.10;41.40;;;11.70;67.90;;;;;;5023283;28;20413;-44
2022/11/29 10:30:21;;;;;;;109.43;39.08;;;11.70;67.90;;;;;;4994816;28;20060;-44
2022/11/29 10:32:54;;;;;;;96.47;35.80;;;11.70;68.00;;;;;;5008175;28;20052;-48
2022/11/29 10:35:23;;;;;;;105.97;37.35;;;11.70;68.20;;;;;;5029733;28;20416;-45
2022/11/29 10:37:53;;;;;;;113.10;40.10;;;11.70;68.30;;;;;;5025180;28;20065;-50
2022/11/29 10:40:25;;;;;;;98.35;37.00;;;11.70;68.30;;;;;;5022833;28;20049;-45
2022/11/29 10:42:53;;;;;;;109.90;38.10;;;11.80;68.40;;;;;;5034652;28;20099;-45
2022/11/29 10:45:26;;;;;;;103.43;38.05;;;11.80;68.30;;;;;;5016266;28;20087;-45
2022/11/29 10:47:57;;;;;;;107.05;38.75;;;11.80;68.30;;;;;;5015142;28;20060;-51
2022/11/29 10:50:29;;;;;;;110.40;39.72;;;11.90;68.30;;;;;;5023409;28;20056;-44
2022/11/29 10:53:00;;;;;;;117.00;36.08;;;11.90;68.20;;;;;;5008844;28;20064;-45
2022/11/29 10:55:31;;;;;;;94.60;35.88;;;11.90;68.80;;;;;;5024887;28;20413;-48
2022/11/29 10:58:13;;;;;;;88.60;35.05;;;11.90;67.90;;;;;;5032859;28;20053;-46
2022/11/29 11:00:46;;;;;;;87.40;30.73;;;11.90;67.80;;;;;;5015116;28;20061;-48
2022/11/29 11:03:23;;;;;;;97.93;33.13;;;11.90;67.80;;;;;;5014097;28;20065;-49
2022/11/29 11:06:05;;;;;;;86.68;32.47;;;11.90;67.80;;;;;;5013720;28;20064;-49
2022/11/29 11:08:34;;;;;;;95.05;33.58;;;12.00;67.70;;;;;;5012069;28;20079;-44
2022/11/29 11:11:03;;;;;;;92.35;31.95;;;12.00;67.70;;;;;;5016005;28;20061;-45
2022/11/29 11:13:32;;;;;;;77.35;28.48;;;12.00;67.60;;;;;;5016405;28;20057;-50
2022/11/29 11:16:09;;;;;;;74.95;27.98;;;12.00;67.30;;;;;;5012903;28;20057;-47
2022/11/29 11:18:37;;;;;;;95.28;29.50;;;12.00;67.40;;;;;;5009117;28;20053;-44
2022/11/29 11:21:09;;;;;;;79.75;28.33;;;12.00;67.20;;;;;;5005238;28;20430;-48
2022/11/29 11:23:39;;;;;;;78.43;27.38;;;12.00;67.20;;;;;;5013771;28;20046;-47
2022/11/29 11:26:09;;;;;;;83.90;28.70;;;12.00;66.80;;;;;;5027421;28;20076;-47
2022/11/29 11:28:42;;;;;;;60.80;24.67;;;12.00;66.60;;;;;;5042073;28;20420;-48
2022/11/29 11:31:12;;;;;;;66.10;22.83;;;12.10;66.80;;;;;;5041048;28;20075;-48
2022/11/29 11:33:40;;;;;;;69.20;23.23;;;12.10;66.90;;;;;;5042793;28;20056;-47
2022/11/29 11:36:14;;;;;;;71.50;21.80;;;12.10;66.70;;;;;;5041655;28;20057;-44
2022/11/29 11:38:50;;;;;;;46.20;19.65;;;12.10;66.20;;;;;;5017533;28;20053;-50
2022/11/29 11:41:21;;;;;;;66.32;23.33;;;12.10;66.20;;;;;;5016489;28;20414;-46
2022/11/29 11:46:57;;;;;;;54.55;21.60;;;12.10;65.70;;;;;;5003984;28;20071;-47
2022/11/29 11:49:29;;;;;;;57.13;22.52;;;12.10;65.70;;;;;;5023586;28;20065;-48
2022/11/29 11:55:50;;;;;;;74.00;27.58;;;12.10;65.90;;;;;;5008514;28;21702;-47
2022/11/29 11:58:36;;;;;;;73.40;27.13;;;12.10;65.70;;;;;;5023921;28;20394;-43
2022/11/29 12:01:27;;;;;;;77.43;29.63;;;12.20;65.70;;;;;;5024525;28;20049;-46
2022/11/29 12:07:44;;;;;;;85.75;31.48;;;12.20;65.30;;;;;;4940882;28;20039;-48
2022/11/29 12:10:18;;;;;;;92.65;33.20;;;12.20;65.20;;;;;;4959842;28;20065;-46
2022/11/29 12:12:48;;;;;;;89.15;32.10;;;12.20;65.20;;;;;;4986523;28;20080;-44
2022/11/29 12:15:18;;;;;;;87.55;30.65;;;12.20;65.30;;;;;;5023539;28;20417;-47
2022/11/29 12:17:50;;;;;;;82.68;32.20;;;12.20;65.40;;;;;;5023291;28;20069;-50
2022/11/29 12:20:25;;;;;;;87.20;32.20;;;12.10;65.30;;;;;;5023370;28;20057;-45
2022/11/29 12:23:27;;;;;;;72.32;28.60;;;12.10;65.30;;;;;;5015077;28;20057;-43
2022/11/29 12:25:58;;;;;;;84.25;30.13;;;12.10;65.30;;;;;;5021931;28;20057;-48
2022/11/29 12:28:29;;;;;;;97.28;33.42;;;12.10;65.20;;;;;;5023417;28;20057;-45
2022/11/29 12:31:07;;;;;;;76.40;31.02;;;12.20;65.20;;;;;;5020832;28;20076;-45
2022/11/29 12:33:42;;;;;;;84.50;32.72;;;12.10;65.10;;;;;;5023970;28;20053;-44
2022/11/29 12:36:21;;;;;;;86.85;32.33;;;12.10;64.90;;;;;;5024550;28;20061;-47
2022/11/29 12:39:02;;;;;;;72.53;29.63;;;12.10;64.90;;;;;;5020535;28;20057;-42
2022/11/29 12:41:42;;;;;;;75.95;29.90;;;12.10;65.00;;;;;;5023514;28;20489;-50
2022/11/29 12:44:20;;;;;;;98.47;33.80;;;12.10;65.10;;;;;;5024314;28;20429;-45
2022/11/29 12:46:54;;;;;;;87.15;31.40;;;12.10;65.20;;;;;;5023358;28;20049;-47
2022/11/29 12:49:28;;;;;;;87.38;30.42;;;12.20;65.20;;;;;;5021841;28;20049;-44
2022/11/29 12:52:01;;;;;;;;;;;12.20;65.10;;;;;;5017875;28;20061;-47
2022/11/29 12:54:52;;;;;;;92.28;32.05;;;12.20;65.10;;;;;;5022971;28;20369;-44
2022/11/29 12:57:28;;;;;;;95.85;34.00;;;12.30;64.60;;;;;;5016977;28;20054;-45
2022/11/29 13:00:06;;;;;;;87.30;33.85;;;12.30;64.50;;;;;;5013603;28;20058;-47
2022/11/29 13:02:59;;;;;;;88.30;33.35;;;12.20;64.50;;;;;;5022075;28;20540;-47
2022/11/29 13:05:41;;;;;;;82.95;32.50;;;12.20;64.40;;;;;;5016659;28;20049;-49
2022/11/29 13:08:23;;;;;;;94.38;33.70;;;12.20;64.40;;;;;;5018238;28;20049;-42
2022/11/29 13:11:08;;;;;;;99.28;35.20;;;12.20;64.40;;;;;;5010260;28;20056;-46
2022/11/29 13:13:40;;;;;;;94.03;32.78;;;12.20;64.40;;;;;;5023489;28;20057;-46
2022/11/29 13:16:19;;;;;;;86.10;32.05;;;12.10;64.30;;;;;;5021163;28;20409;-43
2022/11/29 13:18:54;;;;;;;92.95;32.45;;;12.10;64.40;;;;;;5019571;28;20054;-45
2022/11/29 13:21:31;;;;;;;90.20;33.55;;;12.10;64.40;;;;;;5020414;28;20068;-44